sensor_id;sensor_type;location;lat;lon;timestamp;P1;durP1;ratioP1;P2;durP2;ratioP2
54831;SDS011;40730;53.068;6.572;2023-06-14T00:00:39;3.38;;;1.00;;
54831;SDS011;40730;53.068;6.572;2023-06-14T00:03:08;3.65;;;1.23;;
54831;SDS011;40730;53.068;6.572;2023-06-14T00:05:35;4.82;;;1.55;;
54831;SDS011;40730;53.068;6.572;2023-06-14T00:08:06;11.90;;;1.63;;
54831;SDS011;40730;53.068;6.572;2023-06-14T00:10:36;4.15;;;1.17;;
54831;SDS011;40730;53.068;6.572;2023-06-14T00:13:05;3.25;;;1.08;;
54831;SDS011;40730;53.068;6.572;2023-06-14T00:15:32;1.63;;;1.13;;
54831;SDS011;40730;53.068;6.572;2023-06-14T00:17:58;3.25;;;0.80;;
54831;SDS011;40730;53.068;6.572;2023-06-14T00:20:27;2.10;;;1.35;;
54831;SDS011;40730;53.068;6.572;2023-06-14T00:22:53;4.38;;;1.15;;
54831;SDS011;40730;53.068;6.572;2023-06-14T00:25:20;3.88;;;0.95;;
54831;SDS011;40730;53.068;6.572;2023-06-14T00:27:47;6.00;;;1.40;;
54831;SDS011;40730;53.068;6.572;2023-06-14T00:30:13;4.07;;;1.60;;
54831;SDS011;40730;53.068;6.572;2023-06-14T00:32:39;3.03;;;2.00;;
54831;SDS011;40730;53.068;6.572;2023-06-14T00:35:04;6.95;;;1.67;;
54831;SDS011;40730;53.068;6.572;2023-06-14T00:37:30;5.75;;;1.55;;
54831;SDS011;40730;53.068;6.572;2023-06-14T00:39:56;5.40;;;2.05;;
54831;SDS011;40730;53.068;6.572;2023-06-14T00:42:25;4.30;;;1.77;;
54831;SDS011;40730;53.068;6.572;2023-06-14T00:44:51;4.30;;;2.00;;
54831;SDS011;40730;53.068;6.572;2023-06-14T00:47:17;3.15;;;2.03;;
54831;SDS011;40730;53.068;6.572;2023-06-14T00:49:44;8.60;;;1.55;;
54831;SDS011;40730;53.068;6.572;2023-06-14T00:52:11;3.22;;;1.70;;
54831;SDS011;40730;53.068;6.572;2023-06-14T00:54:37;2.55;;;1.70;;
54831;SDS011;40730;53.068;6.572;2023-06-14T00:57:04;2.53;;;1.40;;
54831;SDS011;40730;53.068;6.572;2023-06-14T00:59:31;9.43;;;1.70;;
54831;SDS011;40730;53.068;6.572;2023-06-14T01:01:56;3.42;;;1.50;;
54831;SDS011;40730;53.068;6.572;2023-06-14T01:04:22;5.78;;;1.70;;
54831;SDS011;40730;53.068;6.572;2023-06-14T01:07:23;3.33;;;1.30;;
54831;SDS011;40730;53.068;6.572;2023-06-14T01:15:01;2.72;;;1.27;;
54831;SDS011;40730;53.068;6.572;2023-06-14T01:17:28;5.32;;;1.30;;
54831;SDS011;40730;53.068;6.572;2023-06-14T01:19:57;5.05;;;2.13;;
54831;SDS011;40730;53.068;6.572;2023-06-14T01:22:27;3.65;;;1.20;;
54831;SDS011;40730;53.068;6.572;2023-06-14T01:24:53;4.13;;;1.67;;
54831;SDS011;40730;53.068;6.572;2023-06-14T01:27:23;8.77;;;1.38;;
54831;SDS011;40730;53.068;6.572;2023-06-14T01:29:53;2.05;;;1.38;;
54831;SDS011;40730;53.068;6.572;2023-06-14T01:32:21;4.47;;;1.55;;
54831;SDS011;40730;53.068;6.572;2023-06-14T01:34:49;4.28;;;1.63;;
54831;SDS011;40730;53.068;6.572;2023-06-14T01:37:15;3.67;;;0.90;;
54831;SDS011;40730;53.068;6.572;2023-06-14T01:39:42;2.17;;;0.90;;
54831;SDS011;40730;53.068;6.572;2023-06-14T01:42:09;3.75;;;0.82;;
54831;SDS011;40730;53.068;6.572;2023-06-14T01:44:36;3.53;;;0.93;;
54831;SDS011;40730;53.068;6.572;2023-06-14T01:47:02;1.08;;;0.55;;
54831;SDS011;40730;53.068;6.572;2023-06-14T01:49:28;1.92;;;0.43;;
54831;SDS011;40730;53.068;6.572;2023-06-14T01:51:53;3.78;;;0.80;;
54831;SDS011;40730;53.068;6.572;2023-06-14T01:54:19;4.13;;;0.82;;
54831;SDS011;40730;53.068;6.572;2023-06-14T01:56:46;2.83;;;0.40;;
54831;SDS011;40730;53.068;6.572;2023-06-14T01:59:12;3.95;;;0.50;;
54831;SDS011;40730;53.068;6.572;2023-06-14T02:01:37;2.17;;;0.60;;
54831;SDS011;40730;53.068;6.572;2023-06-14T02:04:03;3.65;;;0.60;;
54831;SDS011;40730;53.068;6.572;2023-06-14T02:06:29;2.45;;;0.70;;
54831;SDS011;40730;53.068;6.572;2023-06-14T02:08:55;4.53;;;0.80;;
54831;SDS011;40730;53.068;6.572;2023-06-14T02:11:20;4.03;;;0.50;;
54831;SDS011;40730;53.068;6.572;2023-06-14T02:13:46;6.05;;;1.05;;
54831;SDS011;40730;53.068;6.572;2023-06-14T02:16:12;4.38;;;0.52;;
54831;SDS011;40730;53.068;6.572;2023-06-14T02:18:37;2.22;;;0.40;;
54831;SDS011;40730;53.068;6.572;2023-06-14T02:21:03;1.75;;;0.40;;
54831;SDS011;40730;53.068;6.572;2023-06-14T02:23:28;3.20;;;0.60;;
54831;SDS011;40730;53.068;6.572;2023-06-14T02:25:54;1.35;;;0.40;;
54831;SDS011;40730;53.068;6.572;2023-06-14T02:28:20;4.22;;;0.40;;
54831;SDS011;40730;53.068;6.572;2023-06-14T02:30:46;1.40;;;0.40;;
54831;SDS011;40730;53.068;6.572;2023-06-14T02:33:11;1.83;;;0.52;;
54831;SDS011;40730;53.068;6.572;2023-06-14T02:35:38;2.58;;;0.40;;
54831;SDS011;40730;53.068;6.572;2023-06-14T02:38:03;6.47;;;0.50;;
54831;SDS011;40730;53.068;6.572;2023-06-14T02:40:29;4.72;;;0.57;;
54831;SDS011;40730;53.068;6.572;2023-06-14T02:42:55;4.78;;;0.70;;
54831;SDS011;40730;53.068;6.572;2023-06-14T02:45:20;2.58;;;0.55;;
54831;SDS011;40730;53.068;6.572;2023-06-14T02:47:46;2.70;;;0.50;;
54831;SDS011;40730;53.068;6.572;2023-06-14T02:50:11;3.10;;;0.50;;
54831;SDS011;40730;53.068;6.572;2023-06-14T02:52:37;3.38;;;0.70;;
54831;SDS011;40730;53.068;6.572;2023-06-14T02:55:03;2.42;;;0.80;;
54831;SDS011;40730;53.068;6.572;2023-06-14T02:57:29;4.70;;;0.95;;
54831;SDS011;40730;53.068;6.572;2023-06-14T02:59:55;3.80;;;0.60;;
54831;SDS011;40730;53.068;6.572;2023-06-14T03:02:20;2.88;;;0.77;;
54831;SDS011;40730;53.068;6.572;2023-06-14T03:04:46;6.00;;;0.60;;
54831;SDS011;40730;53.068;6.572;2023-06-14T03:07:12;5.63;;;0.80;;
54831;SDS011;40730;53.068;6.572;2023-06-14T03:09:38;3.10;;;0.60;;
54831;SDS011;40730;53.068;6.572;2023-06-14T03:12:04;2.50;;;0.80;;
54831;SDS011;40730;53.068;6.572;2023-06-14T03:14:34;2.47;;;0.90;;
54831;SDS011;40730;53.068;6.572;2023-06-14T03:17:00;4.13;;;0.75;;
54831;SDS011;40730;53.068;6.572;2023-06-14T03:19:26;3.92;;;1.13;;
54831;SDS011;40730;53.068;6.572;2023-06-14T03:21:52;4.82;;;0.90;;
54831;SDS011;40730;53.068;6.572;2023-06-14T03:24:18;2.53;;;0.85;;
54831;SDS011;40730;53.068;6.572;2023-06-14T03:26:44;1.92;;;0.80;;
54831;SDS011;40730;53.068;6.572;2023-06-14T03:29:10;1.95;;;0.93;;
54831;SDS011;40730;53.068;6.572;2023-06-14T03:31:36;3.95;;;1.02;;
54831;SDS011;40730;53.068;6.572;2023-06-14T03:34:06;6.35;;;1.10;;
54831;SDS011;40730;53.068;6.572;2023-06-14T03:36:31;5.15;;;1.80;;
54831;SDS011;40730;53.068;6.572;2023-06-14T03:38:58;3.95;;;1.33;;
54831;SDS011;40730;53.068;6.572;2023-06-14T03:41:24;3.35;;;1.38;;
54831;SDS011;40730;53.068;6.572;2023-06-14T03:43:51;4.35;;;1.38;;
54831;SDS011;40730;53.068;6.572;2023-06-14T03:46:16;3.28;;;1.45;;
54831;SDS011;40730;53.068;6.572;2023-06-14T03:48:42;6.18;;;1.30;;
54831;SDS011;40730;53.068;6.572;2023-06-14T03:51:07;4.07;;;1.13;;
54831;SDS011;40730;53.068;6.572;2023-06-14T03:53:33;2.35;;;1.38;;
54831;SDS011;40730;53.068;6.572;2023-06-14T03:56:00;4.10;;;1.40;;
54831;SDS011;40730;53.068;6.572;2023-06-14T03:58:26;6.45;;;1.60;;
54831;SDS011;40730;53.068;6.572;2023-06-14T04:00:53;4.30;;;1.67;;
54831;SDS011;40730;53.068;6.572;2023-06-14T04:03:18;5.90;;;1.20;;
54831;SDS011;40730;53.068;6.572;2023-06-14T04:05:44;5.00;;;1.60;;
54831;SDS011;40730;53.068;6.572;2023-06-14T04:08:14;4.95;;;1.30;;
54831;SDS011;40730;53.068;6.572;2023-06-14T04:10:40;6.22;;;1.13;;
54831;SDS011;40730;53.068;6.572;2023-06-14T04:13:06;2.20;;;1.20;;
54831;SDS011;40730;53.068;6.572;2023-06-14T04:15:32;2.53;;;1.50;;
54831;SDS011;40730;53.068;6.572;2023-06-14T04:17:58;6.50;;;1.27;;
54831;SDS011;40730;53.068;6.572;2023-06-14T04:20:24;4.88;;;1.25;;
54831;SDS011;40730;53.068;6.572;2023-06-14T04:22:50;4.10;;;1.20;;
54831;SDS011;40730;53.068;6.572;2023-06-14T04:25:17;6.07;;;1.42;;
54831;SDS011;40730;53.068;6.572;2023-06-14T04:27:43;5.93;;;1.52;;
54831;SDS011;40730;53.068;6.572;2023-06-14T04:30:09;4.22;;;1.48;;
54831;SDS011;40730;53.068;6.572;2023-06-14T04:32:35;2.78;;;1.42;;
54831;SDS011;40730;53.068;6.572;2023-06-14T04:35:04;7.50;;;0.90;;
54831;SDS011;40730;53.068;6.572;2023-06-14T04:37:31;3.15;;;1.42;;
54831;SDS011;40730;53.068;6.572;2023-06-14T04:39:58;5.78;;;1.58;;
54831;SDS011;40730;53.068;6.572;2023-06-14T04:42:24;1.92;;;0.93;;
54831;SDS011;40730;53.068;6.572;2023-06-14T04:44:55;4.53;;;1.23;;
54831;SDS011;40730;53.068;6.572;2023-06-14T04:47:21;5.30;;;1.92;;
54831;SDS011;40730;53.068;6.572;2023-06-14T04:49:47;4.15;;;1.73;;
54831;SDS011;40730;53.068;6.572;2023-06-14T04:52:12;5.30;;;1.40;;
54831;SDS011;40730;53.068;6.572;2023-06-14T04:54:39;5.90;;;1.70;;
54831;SDS011;40730;53.068;6.572;2023-06-14T04:57:08;3.90;;;1.38;;
54831;SDS011;40730;53.068;6.572;2023-06-14T04:59:38;1.85;;;0.82;;
54831;SDS011;40730;53.068;6.572;2023-06-14T05:02:04;7.55;;;1.60;;
54831;SDS011;40730;53.068;6.572;2023-06-14T05:04:32;3.63;;;1.25;;
54831;SDS011;40730;53.068;6.572;2023-06-14T05:06:57;4.70;;;1.50;;
54831;SDS011;40730;53.068;6.572;2023-06-14T05:09:23;4.30;;;1.25;;
54831;SDS011;40730;53.068;6.572;2023-06-14T05:11:49;4.60;;;1.05;;
54831;SDS011;40730;53.068;6.572;2023-06-14T05:14:15;4.10;;;1.33;;
54831;SDS011;40730;53.068;6.572;2023-06-14T05:16:41;5.18;;;1.33;;
54831;SDS011;40730;53.068;6.572;2023-06-14T05:19:08;4.05;;;1.40;;
54831;SDS011;40730;53.068;6.572;2023-06-14T05:21:35;6.72;;;1.48;;
54831;SDS011;40730;53.068;6.572;2023-06-14T05:24:02;4.30;;;1.38;;
54831;SDS011;40730;53.068;6.572;2023-06-14T05:26:28;5.50;;;1.88;;
54831;SDS011;40730;53.068;6.572;2023-06-14T05:28:56;3.35;;;1.50;;
54831;SDS011;40730;53.068;6.572;2023-06-14T05:31:23;3.75;;;1.48;;
54831;SDS011;40730;53.068;6.572;2023-06-14T05:33:51;7.00;;;2.10;;
54831;SDS011;40730;53.068;6.572;2023-06-14T05:36:17;1.95;;;1.25;;
54831;SDS011;40730;53.068;6.572;2023-06-14T05:38:43;2.92;;;1.38;;
54831;SDS011;40730;53.068;6.572;2023-06-14T05:41:08;7.05;;;1.08;;
54831;SDS011;40730;53.068;6.572;2023-06-14T05:43:34;4.43;;;1.33;;
54831;SDS011;40730;53.068;6.572;2023-06-14T05:45:59;4.05;;;1.67;;
54831;SDS011;40730;53.068;6.572;2023-06-14T05:48:25;4.32;;;1.50;;
54831;SDS011;40730;53.068;6.572;2023-06-14T05:50:51;3.28;;;1.25;;
54831;SDS011;40730;53.068;6.572;2023-06-14T05:53:16;2.38;;;1.13;;
54831;SDS011;40730;53.068;6.572;2023-06-14T05:55:42;4.90;;;1.25;;
54831;SDS011;40730;53.068;6.572;2023-06-14T05:58:08;6.28;;;1.17;;
54831;SDS011;40730;53.068;6.572;2023-06-14T06:00:34;4.82;;;1.27;;
54831;SDS011;40730;53.068;6.572;2023-06-14T06:02:59;2.70;;;1.20;;
54831;SDS011;40730;53.068;6.572;2023-06-14T06:05:25;5.82;;;1.30;;
54831;SDS011;40730;53.068;6.572;2023-06-14T06:07:51;4.47;;;1.65;;
54831;SDS011;40730;53.068;6.572;2023-06-14T06:10:17;4.90;;;1.38;;
54831;SDS011;40730;53.068;6.572;2023-06-14T06:12:43;5.78;;;1.63;;
54831;SDS011;40730;53.068;6.572;2023-06-14T06:15:08;7.45;;;1.15;;
54831;SDS011;40730;53.068;6.572;2023-06-14T06:17:37;4.95;;;1.73;;
54831;SDS011;40730;53.068;6.572;2023-06-14T06:20:03;3.45;;;1.13;;
54831;SDS011;40730;53.068;6.572;2023-06-14T06:22:31;4.07;;;1.15;;
54831;SDS011;40730;53.068;6.572;2023-06-14T06:24:57;2.38;;;1.15;;
54831;SDS011;40730;53.068;6.572;2023-06-14T06:27:22;3.97;;;1.38;;
54831;SDS011;40730;53.068;6.572;2023-06-14T06:29:48;4.38;;;0.80;;
54831;SDS011;40730;53.068;6.572;2023-06-14T06:32:14;3.20;;;1.25;;
54831;SDS011;40730;53.068;6.572;2023-06-14T06:34:40;2.72;;;1.10;;
54831;SDS011;40730;53.068;6.572;2023-06-14T06:37:06;4.90;;;1.08;;
54831;SDS011;40730;53.068;6.572;2023-06-14T06:39:32;3.80;;;1.05;;
54831;SDS011;40730;53.068;6.572;2023-06-14T06:41:58;3.95;;;0.75;;
54831;SDS011;40730;53.068;6.572;2023-06-14T06:44:23;2.25;;;0.63;;
54831;SDS011;40730;53.068;6.572;2023-06-14T06:46:49;1.55;;;0.82;;
54831;SDS011;40730;53.068;6.572;2023-06-14T06:49:15;3.20;;;0.63;;
54831;SDS011;40730;53.068;6.572;2023-06-14T06:51:41;4.65;;;0.90;;
54831;SDS011;40730;53.068;6.572;2023-06-14T06:54:08;2.15;;;1.10;;
54831;SDS011;40730;53.068;6.572;2023-06-14T06:56:34;12.32;;;1.58;;
54831;SDS011;40730;53.068;6.572;2023-06-14T06:59:00;4.88;;;1.23;;
54831;SDS011;40730;53.068;6.572;2023-06-14T07:01:25;1.80;;;0.75;;
54831;SDS011;40730;53.068;6.572;2023-06-14T07:03:54;4.47;;;0.80;;
54831;SDS011;40730;53.068;6.572;2023-06-14T07:06:20;5.45;;;0.85;;
54831;SDS011;40730;53.068;6.572;2023-06-14T07:08:46;4.22;;;0.70;;
54831;SDS011;40730;53.068;6.572;2023-06-14T07:11:13;4.75;;;1.23;;
54831;SDS011;40730;53.068;6.572;2023-06-14T07:13:39;1.88;;;0.75;;
54831;SDS011;40730;53.068;6.572;2023-06-14T07:16:05;2.78;;;0.68;;
54831;SDS011;40730;53.068;6.572;2023-06-14T07:18:31;5.50;;;0.75;;
54831;SDS011;40730;53.068;6.572;2023-06-14T07:20:57;5.65;;;0.63;;
54831;SDS011;40730;53.068;6.572;2023-06-14T07:23:23;2.35;;;0.60;;
54831;SDS011;40730;53.068;6.572;2023-06-14T07:25:48;3.17;;;0.80;;
54831;SDS011;40730;53.068;6.572;2023-06-14T07:28:15;9.05;;;0.73;;
54831;SDS011;40730;53.068;6.572;2023-06-14T07:30:41;4.45;;;0.77;;
54831;SDS011;40730;53.068;6.572;2023-06-14T07:33:07;1.77;;;0.70;;
54831;SDS011;40730;53.068;6.572;2023-06-14T07:35:33;2.47;;;0.60;;
54831;SDS011;40730;53.068;6.572;2023-06-14T07:37:59;2.90;;;0.70;;
54831;SDS011;40730;53.068;6.572;2023-06-14T07:40:24;3.20;;;0.60;;
54831;SDS011;40730;53.068;6.572;2023-06-14T07:42:50;3.17;;;0.70;;
54831;SDS011;40730;53.068;6.572;2023-06-14T07:45:16;2.60;;;0.90;;
54831;SDS011;40730;53.068;6.572;2023-06-14T07:47:41;3.58;;;0.85;;
54831;SDS011;40730;53.068;6.572;2023-06-14T07:50:07;2.38;;;0.98;;
54831;SDS011;40730;53.068;6.572;2023-06-14T07:52:33;2.10;;;0.65;;
54831;SDS011;40730;53.068;6.572;2023-06-14T07:54:59;3.17;;;0.55;;
54831;SDS011;40730;53.068;6.572;2023-06-14T07:57:26;1.83;;;0.65;;
54831;SDS011;40730;53.068;6.572;2023-06-14T07:59:52;1.92;;;0.50;;
54831;SDS011;40730;53.068;6.572;2023-06-14T08:02:17;2.90;;;0.65;;
54831;SDS011;40730;53.068;6.572;2023-06-14T08:04:43;2.25;;;0.65;;
54831;SDS011;40730;53.068;6.572;2023-06-14T08:07:09;2.20;;;0.80;;
54831;SDS011;40730;53.068;6.572;2023-06-14T08:09:35;2.10;;;0.57;;
54831;SDS011;40730;53.068;6.572;2023-06-14T08:12:03;2.53;;;1.08;;
54831;SDS011;40730;53.068;6.572;2023-06-14T08:14:32;2.80;;;0.50;;
54831;SDS011;40730;53.068;6.572;2023-06-14T08:16:58;2.30;;;0.40;;
54831;SDS011;40730;53.068;6.572;2023-06-14T08:19:24;3.83;;;0.80;;
54831;SDS011;40730;53.068;6.572;2023-06-14T08:21:50;2.65;;;0.50;;
54831;SDS011;40730;53.068;6.572;2023-06-14T08:24:15;3.50;;;0.60;;
54831;SDS011;40730;53.068;6.572;2023-06-14T08:26:42;2.65;;;0.40;;
54831;SDS011;40730;53.068;6.572;2023-06-14T08:29:08;5.35;;;0.77;;
54831;SDS011;40730;53.068;6.572;2023-06-14T08:31:33;4.53;;;0.70;;
54831;SDS011;40730;53.068;6.572;2023-06-14T08:34:00;5.43;;;0.85;;
54831;SDS011;40730;53.068;6.572;2023-06-14T08:36:25;4.57;;;0.55;;
54831;SDS011;40730;53.068;6.572;2023-06-14T08:38:51;1.73;;;0.40;;
54831;SDS011;40730;53.068;6.572;2023-06-14T08:41:22;3.00;;;0.60;;
54831;SDS011;40730;53.068;6.572;2023-06-14T08:43:49;1.70;;;0.57;;
54831;SDS011;40730;53.068;6.572;2023-06-14T08:46:18;3.97;;;0.57;;
54831;SDS011;40730;53.068;6.572;2023-06-14T08:48:50;8.25;;;0.75;;
54831;SDS011;40730;53.068;6.572;2023-06-14T08:51:20;2.40;;;0.40;;
54831;SDS011;40730;53.068;6.572;2023-06-14T08:53:52;4.22;;;0.52;;
54831;SDS011;40730;53.068;6.572;2023-06-14T08:56:22;1.38;;;0.47;;
54831;SDS011;40730;53.068;6.572;2023-06-14T08:58:52;2.55;;;0.50;;
54831;SDS011;40730;53.068;6.572;2023-06-14T09:01:18;1.92;;;0.40;;
54831;SDS011;40730;53.068;6.572;2023-06-14T09:03:46;2.95;;;0.40;;
54831;SDS011;40730;53.068;6.572;2023-06-14T09:06:13;1.90;;;0.90;;
54831;SDS011;40730;53.068;6.572;2023-06-14T09:08:41;3.78;;;0.47;;
54831;SDS011;40730;53.068;6.572;2023-06-14T09:11:08;7.25;;;0.60;;
54831;SDS011;40730;53.068;6.572;2023-06-14T09:13:35;3.40;;;0.60;;
54831;SDS011;40730;53.068;6.572;2023-06-14T09:16:01;2.97;;;0.65;;
54831;SDS011;40730;53.068;6.572;2023-06-14T09:18:34;3.33;;;0.40;;
54831;SDS011;40730;53.068;6.572;2023-06-14T09:21:00;4.30;;;0.82;;
54831;SDS011;40730;53.068;6.572;2023-06-14T09:23:25;1.77;;;0.30;;
54831;SDS011;40730;53.068;6.572;2023-06-14T09:25:51;7.13;;;0.70;;
54831;SDS011;40730;53.068;6.572;2023-06-14T09:28:17;2.30;;;0.70;;
54831;SDS011;40730;53.068;6.572;2023-06-14T09:30:42;4.78;;;0.60;;
54831;SDS011;40730;53.068;6.572;2023-06-14T09:33:08;2.20;;;0.50;;
54831;SDS011;40730;53.068;6.572;2023-06-14T09:35:34;3.75;;;0.50;;
54831;SDS011;40730;53.068;6.572;2023-06-14T09:37:59;7.32;;;0.77;;
54831;SDS011;40730;53.068;6.572;2023-06-14T09:40:26;3.85;;;0.60;;
54831;SDS011;40730;53.068;6.572;2023-06-14T09:42:51;4.05;;;0.43;;
54831;SDS011;40730;53.068;6.572;2023-06-14T09:45:17;5.68;;;0.60;;
54831;SDS011;40730;53.068;6.572;2023-06-14T09:47:48;3.15;;;0.45;;
54831;SDS011;40730;53.068;6.572;2023-06-14T09:50:14;2.13;;;0.50;;
54831;SDS011;40730;53.068;6.572;2023-06-14T09:52:41;1.35;;;0.43;;
54831;SDS011;40730;53.068;6.572;2023-06-14T09:55:11;1.63;;;0.40;;
54831;SDS011;40730;53.068;6.572;2023-06-14T09:57:39;3.70;;;0.40;;
54831;SDS011;40730;53.068;6.572;2023-06-14T10:00:07;4.05;;;0.50;;
54831;SDS011;40730;53.068;6.572;2023-06-14T10:02:37;3.85;;;0.57;;
54831;SDS011;40730;53.068;6.572;2023-06-14T10:07:32;3.03;;;0.68;;
54831;SDS011;40730;53.068;6.572;2023-06-14T10:10:04;3.15;;;0.40;;
54831;SDS011;40730;53.068;6.572;2023-06-14T10:12:33;2.70;;;0.50;;
54831;SDS011;40730;53.068;6.572;2023-06-14T10:15:01;1.75;;;0.38;;
54831;SDS011;40730;53.068;6.572;2023-06-14T10:17:42;2.40;;;0.50;;
54831;SDS011;40730;53.068;6.572;2023-06-14T10:23:08;4.27;;;0.60;;
54831;SDS011;40730;53.068;6.572;2023-06-14T10:25:43;2.22;;;0.50;;
54831;SDS011;40730;53.068;6.572;2023-06-14T10:28:18;1.77;;;0.60;;
54831;SDS011;40730;53.068;6.572;2023-06-14T10:33:32;1.98;;;0.40;;
54831;SDS011;40730;53.068;6.572;2023-06-14T10:38:47;2.10;;;0.50;;
54831;SDS011;40730;53.068;6.572;2023-06-14T10:41:50;1.42;;;0.30;;
54831;SDS011;40730;53.068;6.572;2023-06-14T10:46:47;4.00;;;0.30;;
54831;SDS011;40730;53.068;6.572;2023-06-14T10:49:20;1.33;;;0.40;;
54831;SDS011;40730;53.068;6.572;2023-06-14T10:52:09;4.72;;;0.30;;
54831;SDS011;40730;53.068;6.572;2023-06-14T10:57:46;2.33;;;0.52;;
54831;SDS011;40730;53.068;6.572;2023-06-14T11:00:17;2.67;;;0.20;;
54831;SDS011;40730;53.068;6.572;2023-06-14T11:05:25;2.75;;;0.40;;
54831;SDS011;40730;53.068;6.572;2023-06-14T11:07:58;0.50;;;0.20;;
54831;SDS011;40730;53.068;6.572;2023-06-14T11:10:39;3.00;;;0.20;;
54831;SDS011;40730;53.068;6.572;2023-06-14T11:13:08;1.90;;;0.30;;
54831;SDS011;40730;53.068;6.572;2023-06-14T11:15:37;0.80;;;0.20;;
54831;SDS011;40730;53.068;6.572;2023-06-14T11:18:08;0.63;;;0.20;;
54831;SDS011;40730;53.068;6.572;2023-06-14T11:20:36;1.38;;;0.28;;
54831;SDS011;40730;53.068;6.572;2023-06-14T11:23:03;3.25;;;0.60;;
54831;SDS011;40730;53.068;6.572;2023-06-14T11:25:29;2.17;;;0.22;;
54831;SDS011;40730;53.068;6.572;2023-06-14T11:27:55;3.00;;;0.30;;
54831;SDS011;40730;53.068;6.572;2023-06-14T11:30:21;3.42;;;0.30;;
54831;SDS011;40730;53.068;6.572;2023-06-14T11:32:48;4.05;;;0.20;;
54831;SDS011;40730;53.068;6.572;2023-06-14T11:35:15;1.00;;;0.30;;
54831;SDS011;40730;53.068;6.572;2023-06-14T11:37:41;2.67;;;0.30;;
54831;SDS011;40730;53.068;6.572;2023-06-14T11:40:08;5.78;;;0.40;;
54831;SDS011;40730;53.068;6.572;2023-06-14T11:42:35;2.42;;;0.30;;
54831;SDS011;40730;53.068;6.572;2023-06-14T11:45:02;1.85;;;0.30;;
54831;SDS011;40730;53.068;6.572;2023-06-14T11:47:32;1.67;;;0.40;;
54831;SDS011;40730;53.068;6.572;2023-06-14T11:50:01;2.08;;;0.40;;
54831;SDS011;40730;53.068;6.572;2023-06-14T11:52:27;1.02;;;0.30;;
54831;SDS011;40730;53.068;6.572;2023-06-14T11:54:53;1.83;;;0.50;;
54831;SDS011;40730;53.068;6.572;2023-06-14T11:57:19;1.40;;;0.20;;
54831;SDS011;40730;53.068;6.572;2023-06-14T11:59:45;1.33;;;0.30;;
54831;SDS011;40730;53.068;6.572;2023-06-14T12:02:15;2.15;;;0.28;;
54831;SDS011;40730;53.068;6.572;2023-06-14T12:04:41;2.30;;;0.38;;
54831;SDS011;40730;53.068;6.572;2023-06-14T12:07:11;0.57;;;0.30;;
54831;SDS011;40730;53.068;6.572;2023-06-14T12:12:24;3.47;;;0.30;;
54831;SDS011;40730;53.068;6.572;2023-06-14T12:14:50;2.25;;;0.30;;
54831;SDS011;40730;53.068;6.572;2023-06-14T12:17:17;2.58;;;0.30;;
54831;SDS011;40730;53.068;6.572;2023-06-14T12:19:44;1.67;;;0.30;;
54831;SDS011;40730;53.068;6.572;2023-06-14T12:22:10;2.35;;;0.20;;
54831;SDS011;40730;53.068;6.572;2023-06-14T12:24:36;1.63;;;0.35;;
54831;SDS011;40730;53.068;6.572;2023-06-14T12:27:03;1.20;;;0.35;;
54831;SDS011;40730;53.068;6.572;2023-06-14T12:29:29;2.38;;;0.30;;
54831;SDS011;40730;53.068;6.572;2023-06-14T12:31:58;1.30;;;0.40;;
54831;SDS011;40730;53.068;6.572;2023-06-14T12:34:25;3.85;;;0.40;;
54831;SDS011;40730;53.068;6.572;2023-06-14T12:36:52;3.97;;;0.30;;
54831;SDS011;40730;53.068;6.572;2023-06-14T12:39:21;3.15;;;0.38;;
54831;SDS011;40730;53.068;6.572;2023-06-14T12:41:47;3.15;;;0.30;;
54831;SDS011;40730;53.068;6.572;2023-06-14T12:44:14;1.63;;;0.30;;
54831;SDS011;40730;53.068;6.572;2023-06-14T12:46:40;1.73;;;0.50;;
54831;SDS011;40730;53.068;6.572;2023-06-14T12:49:08;3.50;;;0.32;;
54831;SDS011;40730;53.068;6.572;2023-06-14T12:51:34;4.15;;;0.40;;
54831;SDS011;40730;53.068;6.572;2023-06-14T12:54:00;4.72;;;0.30;;
54831;SDS011;40730;53.068;6.572;2023-06-14T12:56:26;3.83;;;0.40;;
54831;SDS011;40730;53.068;6.572;2023-06-14T12:58:52;4.07;;;0.38;;
54831;SDS011;40730;53.068;6.572;2023-06-14T13:01:17;2.10;;;0.30;;
54831;SDS011;40730;53.068;6.572;2023-06-14T13:03:45;4.10;;;0.68;;
54831;SDS011;40730;53.068;6.572;2023-06-14T13:06:15;4.35;;;0.30;;
54831;SDS011;40730;53.068;6.572;2023-06-14T13:08:41;3.83;;;0.35;;
54831;SDS011;40730;53.068;6.572;2023-06-14T13:11:07;2.25;;;0.68;;
54831;SDS011;40730;53.068;6.572;2023-06-14T13:13:32;1.20;;;0.30;;
54831;SDS011;40730;53.068;6.572;2023-06-14T13:15:58;1.60;;;0.40;;
54831;SDS011;40730;53.068;6.572;2023-06-14T13:18:23;1.25;;;0.43;;
54831;SDS011;40730;53.068;6.572;2023-06-14T13:20:49;1.35;;;0.38;;
54831;SDS011;40730;53.068;6.572;2023-06-14T13:23:15;3.67;;;0.30;;
54831;SDS011;40730;53.068;6.572;2023-06-14T13:25:41;1.10;;;0.35;;
54831;SDS011;40730;53.068;6.572;2023-06-14T13:28:06;2.97;;;0.40;;
54831;SDS011;40730;53.068;6.572;2023-06-14T13:30:32;1.42;;;0.30;;
54831;SDS011;40730;53.068;6.572;2023-06-14T13:32:58;1.55;;;0.50;;
54831;SDS011;40730;53.068;6.572;2023-06-14T13:35:24;6.20;;;0.40;;
54831;SDS011;40730;53.068;6.572;2023-06-14T13:37:50;2.85;;;0.32;;
54831;SDS011;40730;53.068;6.572;2023-06-14T13:40:16;1.63;;;0.30;;
54831;SDS011;40730;53.068;6.572;2023-06-14T13:42:42;2.13;;;0.40;;
54831;SDS011;40730;53.068;6.572;2023-06-14T13:45:08;2.63;;;0.30;;
54831;SDS011;40730;53.068;6.572;2023-06-14T13:47:36;2.25;;;0.30;;
54831;SDS011;40730;53.068;6.572;2023-06-14T13:50:02;2.58;;;0.30;;
54831;SDS011;40730;53.068;6.572;2023-06-14T13:52:28;2.33;;;0.40;;
54831;SDS011;40730;53.068;6.572;2023-06-14T13:54:54;2.72;;;0.80;;
54831;SDS011;40730;53.068;6.572;2023-06-14T13:57:19;1.85;;;0.30;;
54831;SDS011;40730;53.068;6.572;2023-06-14T13:59:45;4.07;;;0.40;;
54831;SDS011;40730;53.068;6.572;2023-06-14T14:02:11;3.30;;;0.40;;
54831;SDS011;40730;53.068;6.572;2023-06-14T14:04:38;2.35;;;0.40;;
54831;SDS011;40730;53.068;6.572;2023-06-14T14:07:04;1.55;;;0.40;;
54831;SDS011;40730;53.068;6.572;2023-06-14T14:09:31;1.30;;;0.30;;
54831;SDS011;40730;53.068;6.572;2023-06-14T14:11:57;1.08;;;0.30;;
54831;SDS011;40730;53.068;6.572;2023-06-14T14:14:23;2.17;;;0.40;;
54831;SDS011;40730;53.068;6.572;2023-06-14T14:16:49;1.73;;;0.32;;
54831;SDS011;40730;53.068;6.572;2023-06-14T14:19:19;2.72;;;0.40;;
54831;SDS011;40730;53.068;6.572;2023-06-14T14:21:46;1.25;;;0.35;;
54831;SDS011;40730;53.068;6.572;2023-06-14T14:24:11;1.83;;;0.43;;
54831;SDS011;40730;53.068;6.572;2023-06-14T14:26:38;1.98;;;0.40;;
54831;SDS011;40730;53.068;6.572;2023-06-14T14:29:04;2.60;;;0.45;;
54831;SDS011;40730;53.068;6.572;2023-06-14T14:31:29;2.55;;;0.50;;
54831;SDS011;40730;53.068;6.572;2023-06-14T14:33:55;2.17;;;0.40;;
54831;SDS011;40730;53.068;6.572;2023-06-14T14:36:20;3.17;;;0.30;;
54831;SDS011;40730;53.068;6.572;2023-06-14T14:38:46;0.98;;;0.30;;
54831;SDS011;40730;53.068;6.572;2023-06-14T14:41:12;1.88;;;0.40;;
54831;SDS011;40730;53.068;6.572;2023-06-14T14:43:38;1.83;;;0.30;;
54831;SDS011;40730;53.068;6.572;2023-06-14T14:46:04;5.03;;;0.60;;
54831;SDS011;40730;53.068;6.572;2023-06-14T14:48:30;2.55;;;0.40;;
54831;SDS011;40730;53.068;6.572;2023-06-14T14:50:55;2.30;;;0.55;;
54831;SDS011;40730;53.068;6.572;2023-06-14T14:53:21;1.23;;;0.50;;
54831;SDS011;40730;53.068;6.572;2023-06-14T14:55:47;1.27;;;0.40;;
54831;SDS011;40730;53.068;6.572;2023-06-14T14:58:13;1.48;;;0.40;;
54831;SDS011;40730;53.068;6.572;2023-06-14T15:00:46;1.05;;;0.30;;
54831;SDS011;40730;53.068;6.572;2023-06-14T15:03:12;1.35;;;0.57;;
54831;SDS011;40730;53.068;6.572;2023-06-14T15:05:38;2.05;;;0.40;;
54831;SDS011;40730;53.068;6.572;2023-06-14T15:08:05;5.40;;;0.55;;
54831;SDS011;40730;53.068;6.572;2023-06-14T15:10:36;4.00;;;0.55;;
54831;SDS011;40730;53.068;6.572;2023-06-14T15:13:05;1.33;;;0.43;;